Time;durP1;ratioP1;P1;durP2;ratioP2;P2;SDS_P1;SDS_P2;PMS_P1;PMS_P2;Temp;Humidity;BMP_temperature;BMP_pressure;BME280_temperature;BME280_humidity;BME280_pressure;Samples;Min_cycle;Max_cycle;Signal;HPM_P1;HPM_P2
2021/12/30 00:01:53;;;;;;;25.42;4.78;;;11.40;99.90;;;;;;7324559;32;20213;-66
2021/12/30 00:05:56;;;;;;;22.20;4.87;;;11.40;99.90;;;;;;7322984;32;20301;-65
2021/12/30 00:09:57;;;;;;;21.77;5.07;;;11.40;99.90;;;;;;7323790;32;20100;-65
2021/12/30 00:14:03;;;;;;;24.12;4.30;;;11.40;99.90;;;;;;7320217;32;20216;-65
2021/12/30 00:18:08;;;;;;;23.25;4.15;;;11.40;99.90;;;;;;7320796;32;20479;-65
2021/12/30 00:22:10;;;;;;;26.83;4.68;;;11.40;99.90;;;;;;7321570;32;20103;-66
2021/12/30 00:26:11;;;;;;;22.15;3.83;;;11.40;99.90;;;;;;7325253;32;20133;-63
2021/12/30 00:30:13;;;;;;;22.25;4.60;;;11.40;99.90;;;;;;7320875;32;20191;-64
2021/12/30 00:34:15;;;;;;;17.25;3.83;;;11.40;99.90;;;;;;7323384;32;20479;-65
2021/12/30 00:38:17;;;;;;;22.00;4.22;;;11.40;99.90;;;;;;7334199;32;20106;-65
2021/12/30 00:42:19;;;;;;;19.62;3.80;;;11.30;99.90;;;;;;7328735;32;20126;-65
2021/12/30 00:46:21;;;;;;;22.83;4.03;;;11.40;99.90;;;;;;7332539;32;20100;-65
2021/12/30 00:50:24;;;;;;;24.90;4.15;;;11.40;99.90;;;;;;7330239;32;20526;-65
2021/12/30 00:54:25;;;;;;;23.35;3.87;;;11.40;99.90;;;;;;7332156;32;20130;-65
2021/12/30 00:58:27;;;;;;;24.67;4.18;;;11.50;99.90;;;;;;7331446;32;20584;-65
2021/12/30 01:02:29;;;;;;;22.50;4.40;;;11.50;99.90;;;;;;7326214;32;20138;-66
2021/12/30 01:06:31;;;;;;;26.73;4.15;;;11.50;99.90;;;;;;7329177;32;20100;-64
2021/12/30 01:10:34;;;;;;;26.15;4.60;;;11.50;99.90;;;;;;7336111;32;20194;-65
2021/12/30 01:14:36;;;;;;;20.92;4.07;;;11.50;99.90;;;;;;7328128;32;20116;-65
2021/12/30 01:19:23;;;;;;;28.55;4.78;;;11.40;99.90;;;;;;7322871;32;20111;-66
2021/12/30 01:23:04;;;;;;;27.90;4.30;;;11.40;99.90;;;;;;7329181;32;20100;-64
2021/12/30 01:27:06;;;;;;;25.15;4.35;;;11.50;99.90;;;;;;7334127;32;20213;-65
2021/12/30 01:31:08;;;;;;;23.70;3.97;;;11.50;99.90;;;;;;7336200;32;20448;-64
2021/12/30 01:35:14;;;;;;;24.75;3.55;;;11.40;99.90;;;;;;7325838;32;20194;-66
2021/12/30 01:39:18;;;;;;;28.23;4.53;;;11.40;99.90;;;;;;7325296;32;20103;-66
2021/12/30 01:43:21;;;;;;;23.42;3.83;;;11.40;99.90;;;;;;7328664;32;20632;-66
2021/12/30 01:47:24;;;;;;;25.25;3.72;;;11.40;99.90;;;;;;7335091;32;20542;-66
2021/12/30 01:51:26;;;;;;;25.50;4.03;;;11.40;99.90;;;;;;7321598;32;20123;-64
2021/12/30 01:55:28;;;;;;;22.52;4.18;;;11.50;99.90;;;;;;7332517;32;20102;-65
2021/12/30 01:59:30;;;;;;;28.67;4.85;;;11.40;99.90;;;;;;7340324;32;20103;-65
2021/12/30 02:03:32;;;;;;;21.08;3.70;;;11.50;99.90;;;;;;7334695;32;20214;-64
2021/12/30 02:07:34;;;;;;;34.25;4.50;;;11.50;99.90;;;;;;7331652;32;20245;-66
2021/12/30 02:11:36;;;;;;;25.33;4.32;;;11.50;99.90;;;;;;7331512;32;20446;-66
2021/12/30 02:15:38;;;;;;;18.67;3.55;;;11.50;99.90;;;;;;7329097;32;20129;-66
2021/12/30 02:19:40;;;;;;;19.77;3.95;;;11.50;99.90;;;;;;7326313;32;20096;-65
2021/12/30 02:23:42;;;;;;;25.40;4.57;;;11.50;99.90;;;;;;7331829;32;20103;-65
2021/12/30 02:27:43;;;;;;;25.75;4.78;;;11.50;99.90;;;;;;7330360;32;20198;-65
2021/12/30 02:31:45;;;;;;;19.73;3.53;;;11.50;99.90;;;;;;7329364;32;20218;-66
2021/12/30 02:35:47;;;;;;;21.55;4.28;;;11.50;99.90;;;;;;7334811;32;20603;-66
2021/12/30 02:39:53;;;;;;;26.10;4.55;;;11.50;99.90;;;;;;7330262;32;20112;-65
2021/12/30 02:43:54;;;;;;;21.37;3.70;;;11.60;99.90;;;;;;7330669;32;20118;-64
2021/12/30 02:47:56;;;;;;;18.55;4.32;;;11.60;99.90;;;;;;7337290;32;20121;-66
2021/12/30 02:51:59;;;;;;;23.75;4.62;;;11.60;99.90;;;;;;7332016;32;20158;-64
2021/12/30 02:56:02;;;;;;;21.25;4.68;;;11.60;99.90;;;;;;7328391;32;20423;-65
2021/12/30 03:00:07;;;;;;;24.58;4.57;;;11.60;99.90;;;;;;7332041;32;20215;-66
2021/12/30 03:04:10;;;;;;;19.83;3.87;;;11.70;99.90;;;;;;7328491;32;20130;-66
2021/12/30 03:08:12;;;;;;;19.87;5.43;;;11.60;99.90;;;;;;7328225;32;20211;-66
2021/12/30 03:12:14;;;;;;;23.92;4.40;;;11.60;99.90;;;;;;7317741;32;20199;-66
2021/12/30 03:16:37;;;;;;;15.93;4.40;;;11.60;99.90;;;;;;7317117;32;20107;-66
2021/12/30 03:20:39;;;;;;;13.55;3.85;;;11.70;99.90;;;;;;7323059;32;20102;-66
2021/12/30 03:24:40;;;;;;;21.73;4.72;;;11.80;99.90;;;;;;7324643;32;20126;-66
2021/12/30 03:28:43;;;;;;;20.55;4.95;;;11.70;99.90;;;;;;7327850;32;20107;-65
2021/12/30 03:32:45;;;;;;;22.50;5.70;;;11.80;99.90;;;;;;7329955;32;20217;-67
2021/12/30 03:36:47;;;;;;;30.12;5.70;;;11.80;99.90;;;;;;7333921;32;20111;-67
2021/12/30 03:40:48;;;;;;;22.67;5.20;;;11.80;99.90;;;;;;7332638;32;20130;-65
2021/12/30 03:44:52;;;;;;;22.02;5.78;;;11.80;99.90;;;;;;7321027;32;20626;-66
2021/12/30 03:48:54;;;;;;;22.65;7.00;;;11.80;99.90;;;;;;7328806;32;20269;-65
2021/12/30 03:53:00;;;;;;;22.85;8.20;;;11.80;99.90;;;;;;7329729;32;20126;-66
2021/12/30 03:57:02;;;;;;;27.13;8.82;;;11.90;99.90;;;;;;7317654;32;20139;-66
2021/12/30 04:01:04;;;;;;;27.13;9.85;;;11.80;99.90;;;;;;7342682;32;20213;-65
2021/12/30 04:05:07;;;;;;;24.40;9.40;;;12.00;99.90;;;;;;7342206;32;20103;-66
2021/12/30 04:09:09;;;;;;;25.75;9.95;;;12.00;99.90;;;;;;7331783;32;20103;-65
2021/12/30 04:13:10;;;;;;;26.25;11.80;;;12.00;99.90;;;;;;7339881;32;20524;-66
2021/12/30 04:17:12;;;;;;;26.25;12.32;;;12.00;99.90;;;;;;7335028;32;20324;-66
2021/12/30 04:21:19;;;;;;;23.35;10.13;;;12.00;99.90;;;;;;7325234;32;20130;-66
2021/12/30 04:25:20;;;;;;;19.25;9.98;;;12.00;99.90;;;;;;7331177;32;20463;-66
2021/12/30 04:29:22;;;;;;;16.77;8.32;;;12.00;99.90;;;;;;7320940;32;20161;-67
2021/12/30 04:33:25;;;;;;;18.55;7.20;;;12.10;99.90;;;;;;7325722;32;20112;-67
2021/12/30 04:37:26;;;;;;;13.70;6.78;;;12.10;99.90;;;;;;7328569;32;20142;-67
2021/12/30 04:41:28;;;;;;;10.73;5.85;;;12.10;99.90;;;;;;7332878;32;20319;-66
2021/12/30 04:45:30;;;;;;;12.98;5.93;;;12.10;99.90;;;;;;7321359;32;20130;-67
2021/12/30 04:49:32;;;;;;;10.85;5.32;;;12.10;99.90;;;;;;7335341;32;20682;-65
2021/12/30 04:53:34;;;;;;;9.23;5.70;;;12.00;99.90;;;;;;7333634;32;20893;-65
2021/12/30 04:57:36;;;;;;;10.52;5.35;;;12.00;99.90;;;;;;7331993;32;20108;-66
2021/12/30 05:01:40;;;;;;;11.48;5.35;;;12.00;99.90;;;;;;7336604;32;20103;-66
2021/12/30 05:05:45;;;;;;;7.95;4.95;;;12.00;99.90;;;;;;7324820;32;20690;-66
2021/12/30 05:09:47;;;;;;;10.65;4.78;;;12.10;99.90;;;;;;7337079;32;20103;-65
2021/12/30 05:13:49;;;;;;;7.45;4.37;;;12.20;99.90;;;;;;7324182;32;20464;-66
2021/12/30 05:17:50;;;;;;;7.93;4.80;;;12.20;99.90;;;;;;7328714;32;20126;-65
2021/12/30 05:21:52;;;;;;;7.80;5.30;;;12.30;99.90;;;;;;7336023;32;20202;-64
2021/12/30 05:25:54;;;;;;;10.23;5.72;;;12.30;99.90;;;;;;7321414;32;20179;-65
2021/12/30 05:29:56;;;;;;;7.78;5.00;;;12.40;99.90;;;;;;7340928;32;20783;-66
2021/12/30 05:33:58;;;;;;;8.85;5.37;;;12.40;99.90;;;;;;7326284;32;20126;-65
2021/12/30 05:38:01;;;;;;;6.85;5.55;;;12.40;99.90;;;;;;7330614;32;20130;-64
2021/12/30 05:42:03;;;;;;;8.77;4.97;;;12.40;99.90;;;;;;7326116;32;20186;-65
2021/12/30 05:46:05;;;;;;;8.50;4.75;;;12.50;99.90;;;;;;7327807;32;20217;-65
2021/12/30 05:50:08;;;;;;;6.03;4.50;;;12.50;99.90;;;;;;7330761;32;20129;-65
2021/12/30 05:54:10;;;;;;;5.03;3.70;;;12.60;99.90;;;;;;7321571;32;20139;-65
2021/12/30 05:58:12;;;;;;;5.07;3.90;;;12.70;99.90;;;;;;7334333;32;20107;-65
2021/12/30 06:02:13;;;;;;;5.18;3.45;;;12.70;99.90;;;;;;7327445;32;20212;-65
2021/12/30 06:06:15;;;;;;;5.85;4.05;;;12.80;99.90;;;;;;7337726;32;20568;-66
2021/12/30 06:10:18;;;;;;;4.22;3.60;;;12.80;99.90;;;;;;7332574;32;20111;-65
2021/12/30 06:14:19;;;;;;;4.32;3.90;;;12.80;99.90;;;;;;7328882;32;20127;-65
2021/12/30 06:18:21;;;;;;;4.75;3.72;;;12.80;99.90;;;;;;7320892;32;20515;-65
2021/12/30 06:22:23;;;;;;;6.18;3.40;;;12.80;99.90;;;;;;7324537;32;20424;-64
2021/12/30 06:26:24;;;;;;;3.47;2.97;;;12.90;99.90;;;;;;7337151;32;20232;-64
2021/12/30 06:30:26;;;;;;;3.17;2.87;;;12.90;99.90;;;;;;7328958;32;20100;-64
2021/12/30 06:34:28;;;;;;;5.50;3.08;;;13.00;99.90;;;;;;7333781;32;20468;-64
2021/12/30 06:38:29;;;;;;;3.40;3.00;;;13.00;99.90;;;;;;7320821;32;20122;-66
2021/12/30 06:42:31;;;;;;;3.70;2.40;;;13.10;99.90;;;;;;7317165;32;20238;-64
2021/12/30 06:46:33;;;;;;;3.53;2.80;;;13.10;99.90;;;;;;7324993;32;20096;-64
2021/12/30 06:50:35;;;;;;;3.37;2.62;;;13.10;99.90;;;;;;7315092;32;20319;-65
2021/12/30 06:54:38;;;;;;;4.50;2.30;;;13.10;99.90;;;;;;7319417;32;20565;-65
2021/12/30 06:58:40;;;;;;;3.45;1.95;;;13.20;99.90;;;;;;7318262;32;20138;-66
2021/12/30 07:02:44;;;;;;;3.35;2.12;;;13.10;99.90;;;;;;7318864;32;20123;-66
2021/12/30 07:06:46;;;;;;;2.67;1.50;;;13.20;99.90;;;;;;7322487;32;20115;-64
2021/12/30 07:10:48;;;;;;;3.55;1.20;;;13.20;99.90;;;;;;7318722;32;20545;-65
2021/12/30 07:14:50;;;;;;;3.78;1.40;;;13.20;99.90;;;;;;7323648;32;20134;-65
2021/12/30 07:18:52;;;;;;;1.92;1.25;;;13.30;99.90;;;;;;7318502;32;20170;-64
2021/12/30 07:22:53;;;;;;;2.22;1.33;;;13.20;99.90;;;;;;7323194;32;20099;-64
2021/12/30 07:26:55;;;;;;;2.25;1.42;;;13.30;99.90;;;;;;7327243;32;20261;-64
2021/12/30 07:30:57;;;;;;;2.25;1.73;;;13.30;99.90;;;;;;7326552;32;20538;-64
2021/12/30 07:34:58;;;;;;;1.87;1.60;;;13.30;99.90;;;;;;7331883;32;20210;-64
2021/12/30 07:39:00;;;;;;;2.40;1.80;;;13.30;99.90;;;;;;7328059;32;20107;-63
2021/12/30 07:43:02;;;;;;;3.62;2.45;;;13.30;99.90;;;;;;7332671;32;20134;-62
2021/12/30 07:47:04;;;;;;;3.10;2.30;;;13.30;99.90;;;;;;7324588;32;20520;-62
2021/12/30 07:51:06;;;;;;;4.37;2.20;;;13.30;99.90;;;;;;7322936;32;20701;-62
2021/12/30 07:55:10;;;;;;;3.25;2.37;;;13.30;99.90;;;;;;7330072;32;20107;-63
2021/12/30 07:59:12;;;;;;;5.37;2.40;;;13.30;99.90;;;;;;7327943;32;20546;-62
2021/12/30 08:03:13;;;;;;;3.53;2.40;;;13.30;99.90;;;;;;7327842;32;20321;-62
2021/12/30 08:07:20;;;;;;;3.25;2.60;;;13.30;99.90;;;;;;7326466;32;20206;-62
2021/12/30 08:11:21;;;;;;;3.10;2.40;;;13.30;99.90;;;;;;7333336;32;20355;-62
2021/12/30 08:15:24;;;;;;;3.72;2.50;;;13.30;99.90;;;;;;7324693;32;20111;-62
2021/12/30 08:19:25;;;;;;;2.85;2.10;;;13.20;99.90;;;;;;7327306;32;20213;-62
2021/12/30 08:23:27;;;;;;;2.10;1.70;;;13.20;99.90;;;;;;7323691;32;20195;-63
2021/12/30 08:27:29;;;;;;;2.72;1.77;;;13.20;99.90;;;;;;7324850;32;20535;-62
2021/12/30 08:31:35;;;;;;;4.18;1.92;;;13.20;99.90;;;;;;7326683;32;20118;-62
2021/12/30 08:35:37;;;;;;;2.03;1.60;;;13.20;99.90;;;;;;7322756;32;20245;-62
2021/12/30 08:39:40;;;;;;;2.87;1.92;;;13.20;99.90;;;;;;7327370;32;20217;-64
2021/12/30 08:43:42;;;;;;;2.55;1.85;;;13.20;99.90;;;;;;7325267;32;20100;-62
2021/12/30 08:47:45;;;;;;;3.20;2.05;;;13.30;99.90;;;;;;7330680;32;20133;-64
2021/12/30 08:51:46;;;;;;;2.58;1.83;;;13.20;99.90;;;;;;7326713;32;20107;-62
2021/12/30 08:55:48;;;;;;;3.83;2.65;;;13.20;99.90;;;;;;7328279;32;20112;-62
2021/12/30 08:59:50;;;;;;;5.40;2.50;;;13.20;99.90;;;;;;7347092;32;20134;-62
2021/12/30 09:03:53;;;;;;;4.35;2.58;;;13.20;99.90;;;;;;7332064;32;20120;-62
2021/12/30 09:07:55;;;;;;;3.87;2.80;;;13.20;99.90;;;;;;7336998;32;20197;-62
2021/12/30 09:11:57;;;;;;;2.58;2.17;;;13.20;99.90;;;;;;7325466;32;20124;-62
2021/12/30 09:16:00;;;;;;;3.92;2.42;;;13.20;99.90;;;;;;7319294;32;20146;-64
2021/12/30 09:20:03;;;;;;;2.87;2.37;;;13.20;99.90;;;;;;7328812;32;20168;-64
2021/12/30 09:24:06;;;;;;;3.22;2.92;;;13.20;99.90;;;;;;7330859;32;20826;-63
2021/12/30 09:28:11;;;;;;;3.87;2.35;;;13.30;99.90;;;;;;7322874;32;20100;-64
2021/12/30 09:32:13;;;;;;;4.53;2.62;;;13.30;99.90;;;;;;7324163;32;20131;-63
2021/12/30 09:36:14;;;;;;;3.12;2.40;;;13.40;99.90;;;;;;7329786;32;20138;-63
2021/12/30 09:40:18;;;;;;;3.85;2.55;;;13.40;99.90;;;;;;7328603;32;20099;-63
2021/12/30 09:44:21;;;;;;;4.07;2.90;;;13.40;99.90;;;;;;7324625;32;20108;-63
2021/12/30 09:48:23;;;;;;;4.00;1.67;;;13.50;99.90;;;;;;7331007;32;20163;-62
2021/12/30 09:52:26;;;;;;;3.95;2.00;;;13.60;99.90;;;;;;7337657;32;20115;-63
2021/12/30 09:56:28;;;;;;;2.80;1.90;;;13.70;99.90;;;;;;7330761;32;20535;-63
2021/12/30 10:00:30;;;;;;;3.85;2.50;;;13.80;99.90;;;;;;7333198;32;20108;-63
2021/12/30 10:04:34;;;;;;;5.25;2.15;;;13.90;99.90;;;;;;7333326;32;20534;-62
2021/12/30 10:08:39;;;;;;;3.67;1.90;;;13.90;99.90;;;;;;7332765;32;20201;-63
2021/12/30 10:12:44;;;;;;;1.87;1.25;;;14.00;99.90;;;;;;7329158;32;20202;-63
2021/12/30 10:16:46;;;;;;;2.12;1.30;;;14.00;99.90;;;;;;7316307;32;20120;-63
2021/12/30 10:20:48;;;;;;;4.07;1.40;;;14.10;99.90;;;;;;7328803;32;20225;-64
2021/12/30 10:24:50;;;;;;;3.17;1.15;;;14.20;99.90;;;;;;7327407;32;20542;-63
2021/12/30 10:28:59;;;;;;;2.45;1.17;;;14.30;99.90;;;;;;7332393;32;20194;-63
2021/12/30 10:33:12;;;;;;;1.87;1.10;;;14.30;99.90;;;;;;7330365;32;20100;-63
2021/12/30 10:37:20;;;;;;;1.92;1.00;;;14.30;99.90;;;;;;7326808;32;20096;-65
2021/12/30 10:41:24;;;;;;;2.28;1.20;;;14.20;99.90;;;;;;7324344;32;20099;-64
2021/12/30 10:45:26;;;;;;;3.83;1.80;;;14.20;99.90;;;;;;7327852;32;20820;-64
2021/12/30 10:49:28;;;;;;;4.45;1.42;;;14.10;99.90;;;;;;7326227;32;20531;-64
2021/12/30 10:53:31;;;;;;;2.78;1.50;;;14.10;99.90;;;;;;7323011;32;20583;-64
2021/12/30 10:57:32;;;;;;;1.90;1.40;;;14.10;99.90;;;;;;7334382;32;20818;-63
2021/12/30 11:01:40;;;;;;;2.62;1.60;;;14.20;99.90;;;;;;7326590;32;20095;-64
2021/12/30 11:06:17;;;;;;;3.45;1.60;;;14.20;99.90;;;;;;7319239;32;20744;-65
2021/12/30 11:10:36;;;;;;;4.10;1.40;;;14.20;99.90;;;;;;7320919;32;20126;-63
2021/12/30 11:14:38;;;;;;;2.08;1.37;;;14.20;99.90;;;;;;7325399;32;20099;-63
2021/12/30 11:18:41;;;;;;;3.60;1.62;;;14.20;99.90;;;;;;7304717;32;20198;-64
2021/12/30 11:22:43;;;;;;;4.32;1.90;;;14.10;99.90;;;;;;7319106;32;20107;-64
2021/12/30 11:26:48;;;;;;;4.53;1.70;;;14.10;99.90;;;;;;7317199;32;20097;-64
2021/12/30 11:30:50;;;;;;;3.78;1.65;;;14.10;99.90;;;;;;7316256;32;20103;-63
2021/12/30 11:34:57;;;;;;;3.87;1.50;;;14.20;99.90;;;;;;7309783;32;20618;-64
2021/12/30 11:39:03;;;;;;;4.43;1.50;;;14.10;99.90;;;;;;7311709;32;20092;-63
2021/12/30 11:43:13;;;;;;;5.73;1.93;;;14.10;99.90;;;;;;7312130;32;20104;-64
2021/12/30 11:47:36;;;;;;;3.75;1.58;;;14.10;99.90;;;;;;7313329;32;20229;-64
2021/12/30 11:51:46;;;;;;;2.97;1.83;;;14.20;99.90;;;;;;7314301;32;20115;-64
2021/12/30 11:56:09;;;;;;;6.62;2.00;;;14.20;99.90;;;;;;7316755;32;20108;-64
2021/12/30 12:00:36;;;;;;;3.25;1.60;;;14.20;99.90;;;;;;7318441;32;20832;-65
2021/12/30 12:04:38;;;;;;;3.85;1.75;;;14.20;99.90;;;;;;7320029;32;20111;-63
2021/12/30 12:08:46;;;;;;;4.55;1.77;;;14.20;99.90;;;;;;7325040;32;20108;-63
2021/12/30 12:12:48;;;;;;;6.20;1.92;;;14.20;99.90;;;;;;7323227;32;20199;-63
2021/12/30 12:16:58;;;;;;;7.55;1.90;;;14.20;99.90;;;;;;7329708;32;20119;-63
2021/12/30 12:21:04;;;;;;;3.75;1.95;;;14.20;99.90;;;;;;7333482;32;20115;-64
2021/12/30 12:25:11;;;;;;;4.20;1.62;;;14.20;99.90;;;;;;7340970;32;20195;-64
2021/12/30 12:29:42;;;;;;;6.93;2.13;;;14.10;99.90;;;;;;7331709;32;20130;-63
2021/12/30 12:33:44;;;;;;;6.15;2.10;;;14.10;99.90;;;;;;7327484;32;20466;-63
2021/12/30 12:37:50;;;;;;;7.12;1.80;;;14.20;99.90;;;;;;7315482;32;20213;-63
2021/12/30 12:41:52;;;;;;;7.25;1.95;;;14.10;99.90;;;;;;7316299;32;20568;-63
2021/12/30 12:46:03;;;;;;;5.70;1.55;;;14.20;99.90;;;;;;7318606;32;20142;-63
2021/12/30 12:50:09;;;;;;;4.18;1.70;;;14.20;99.90;;;;;;7325514;32;20132;-63
2021/12/30 12:54:10;;;;;;;4.60;1.77;;;14.20;99.90;;;;;;7314670;32;20190;-64
2021/12/30 12:58:12;;;;;;;19.80;2.37;;;14.20;99.90;;;;;;7323605;32;20301;-64
2021/12/30 13:02:15;;;;;;;5.72;1.92;;;14.20;99.90;;;;;;7316155;32;20157;-63
2021/12/30 13:06:22;;;;;;;4.53;1.70;;;14.20;99.90;;;;;;7324127;32;20139;-63
2021/12/30 13:10:23;;;;;;;4.12;1.50;;;14.20;99.90;;;;;;7323140;32;20116;-64
2021/12/30 13:14:29;;;;;;;6.80;1.80;;;14.30;99.90;;;;;;7330792;32;20116;-64
2021/12/30 13:18:32;;;;;;;5.40;1.67;;;14.30;99.90;;;;;;7325857;32;20123;-63
2021/12/30 13:22:34;;;;;;;6.55;1.92;;;14.30;99.90;;;;;;7329802;32;20124;-63
2021/12/30 13:26:38;;;;;;;4.62;1.83;;;14.30;99.90;;;;;;7324016;32;20206;-63
2021/12/30 13:30:40;;;;;;;2.05;1.20;;;14.40;99.90;;;;;;7319614;32;20146;-64
2021/12/30 13:34:57;;;;;;;5.70;1.60;;;14.40;99.90;;;;;;7322402;32;20748;-64
2021/12/30 13:39:13;;;;;;;4.13;1.70;;;14.40;99.90;;;;;;7325619;32;20107;-64
2021/12/30 13:43:18;;;;;;;4.78;1.52;;;14.40;99.90;;;;;;7314072;32;20115;-63
2021/12/30 13:47:40;;;;;;;4.18;1.40;;;14.50;99.90;;;;;;7324696;32;20151;-63
2021/12/30 13:51:42;;;;;;;2.42;1.00;;;14.40;99.90;;;;;;7333008;32;20487;-63
2021/12/30 13:55:49;;;;;;;3.67;1.20;;;14.40;99.90;;;;;;7327104;32;20107;-64
2021/12/30 13:59:54;;;;;;;7.30;1.37;;;14.40;99.90;;;;;;7318715;32;20609;-64
2021/12/30 14:04:06;;;;;;;5.40;1.17;;;14.40;99.90;;;;;;7315711;32;20566;-64
2021/12/30 14:08:11;;;;;;;2.03;1.15;;;14.30;99.90;;;;;;7323935;32;20732;-64
2021/12/30 14:12:13;;;;;;;4.18;1.10;;;14.30;99.90;;;;;;7320326;32;20115;-64
2021/12/30 14:16:21;;;;;;;4.18;0.90;;;14.30;99.90;;;;;;7322402;32;20149;-64
2021/12/30 14:20:23;;;;;;;4.12;1.30;;;14.30;99.90;;;;;;7320700;32;20139;-64
2021/12/30 14:24:28;;;;;;;3.05;1.12;;;14.30;99.90;;;;;;7324883;32;20116;-63
2021/12/30 14:28:29;;;;;;;3.47;1.00;;;14.30;99.90;;;;;;7326059;32;20132;-64
2021/12/30 14:32:31;;;;;;;3.87;1.67;;;14.30;99.90;;;;;;7316070;32;20942;-65
2021/12/30 14:36:35;;;;;;;4.07;1.12;;;14.30;99.90;;;;;;7328933;32;20111;-64
2021/12/30 14:40:37;;;;;;;4.20;1.50;;;14.30;99.90;;;;;;7314416;32;20940;-64
2021/12/30 14:44:42;;;;;;;5.32;1.50;;;14.20;99.90;;;;;;7328040;32;20119;-64
2021/12/30 14:48:55;;;;;;;3.83;1.55;;;14.30;99.90;;;;;;7322232;32;20134;-65
2021/12/30 14:53:03;;;;;;;4.32;1.30;;;14.20;99.90;;;;;;7319475;32;20258;-64
2021/12/30 14:57:04;;;;;;;4.55;1.95;;;14.20;99.90;;;;;;7324507;32;20126;-64
2021/12/30 15:01:10;;;;;;;6.60;1.60;;;14.20;99.90;;;;;;7315438;32;20254;-65
2021/12/30 15:05:15;;;;;;;3.63;1.23;;;14.10;99.90;;;;;;7314915;32;20122;-68
2021/12/30 15:09:16;;;;;;;3.25;1.73;;;14.20;99.90;;;;;;7320054;32;20325;-68
2021/12/30 15:13:19;;;;;;;3.45;1.23;;;14.20;99.90;;;;;;7323519;32;20107;-66
2021/12/30 15:17:22;;;;;;;4.70;1.55;;;14.30;99.90;;;;;;7311997;32;20116;-68
2021/12/30 15:21:23;;;;;;;2.75;1.23;;;14.30;99.90;;;;;;7318120;32;20107;-67
2021/12/30 15:25:26;;;;;;;6.35;1.40;;;14.30;99.90;;;;;;7320778;32;20119;-64
2021/12/30 15:29:29;;;;;;;4.55;1.60;;;14.30;99.90;;;;;;7321146;32;20115;-66
2021/12/30 15:33:30;;;;;;;5.82;1.30;;;14.20;99.90;;;;;;7333701;32;20723;-66
2021/12/30 15:37:32;;;;;;;5.50;1.58;;;14.10;99.90;;;;;;7322723;32;20211;-66
2021/12/30 15:41:34;;;;;;;3.65;1.50;;;14.10;99.90;;;;;;7332705;32;20111;-66
2021/12/30 15:45:40;;;;;;;5.60;1.87;;;14.00;99.90;;;;;;7326406;32;20114;-66
2021/12/30 15:49:43;;;;;;;5.70;1.48;;;14.00;99.90;;;;;;7340400;32;20610;-66
2021/12/30 15:53:45;;;;;;;3.65;1.65;;;14.00;99.90;;;;;;7325417;32;21862;-66
2021/12/30 15:57:48;;;;;;;5.37;1.37;;;14.00;99.90;;;;;;7340949;32;20198;-66
2021/12/30 16:01:51;;;;;;;5.28;1.50;;;14.00;99.90;;;;;;7338035;32;20126;-66
2021/12/30 16:05:53;;;;;;;6.30;1.70;;;14.00;99.90;;;;;;7329332;32;20167;-67
2021/12/30 16:09:54;;;;;;;4.10;1.90;;;13.90;99.90;;;;;;7352275;32;20456;-66
2021/12/30 16:13:56;;;;;;;7.25;2.08;;;13.90;99.90;;;;;;7332217;32;20108;-66
2021/12/30 16:17:58;;;;;;;5.45;1.60;;;14.00;99.90;;;;;;7333667;32;20906;-66
2021/12/30 16:21:59;;;;;;;4.47;1.60;;;14.00;99.90;;;;;;7340869;32;20520;-66
2021/12/30 16:26:01;;;;;;;4.68;1.58;;;14.00;99.90;;;;;;7332028;32;20202;-66
2021/12/30 16:30:08;;;;;;;7.57;2.17;;;14.00;99.90;;;;;;7331654;32;20234;-66
2021/12/30 16:34:10;;;;;;;9.90;1.67;;;14.00;99.90;;;;;;7327676;32;20773;-66
2021/12/30 16:38:12;;;;;;;10.23;1.50;;;14.00;99.90;;;;;;7329597;32;20111;-65
2021/12/30 16:42:14;;;;;;;4.80;1.70;;;14.00;99.90;;;;;;7327484;32;20581;-66
2021/12/30 16:46:15;;;;;;;4.15;1.67;;;14.00;99.90;;;;;;7337634;32;20130;-67
2021/12/30 16:50:17;;;;;;;6.32;1.67;;;14.00;99.90;;;;;;7322881;32;20640;-66
2021/12/30 16:54:19;;;;;;;8.15;1.98;;;13.90;99.90;;;;;;7324934;32;20119;-66
2021/12/30 16:58:22;;;;;;;7.68;1.58;;;13.90;99.90;;;;;;7326198;32;20141;-66
2021/12/30 17:02:24;;;;;;;3.12;1.60;;;13.90;99.90;;;;;;7330653;32;20115;-66
2021/12/30 17:06:26;;;;;;;4.93;2.10;;;13.80;99.90;;;;;;7327728;32;20108;-66
2021/12/30 17:10:28;;;;;;;3.70;1.80;;;13.80;99.90;;;;;;7326739;32;20638;-66
2021/12/30 17:14:30;;;;;;;5.65;2.05;;;13.80;99.90;;;;;;7320722;32;20557;-66
2021/12/30 17:18:31;;;;;;;3.85;1.80;;;13.70;99.90;;;;;;7325677;32;20111;-65
2021/12/30 17:22:35;;;;;;;4.93;1.77;;;13.60;99.90;;;;;;7325507;32;20780;-66
2021/12/30 17:26:36;;;;;;;5.45;2.28;;;13.60;99.90;;;;;;7324350;32;20207;-66
2021/12/30 17:30:40;;;;;;;6.90;2.20;;;13.60;99.90;;;;;;7327620;32;20647;-67
2021/12/30 17:34:42;;;;;;;8.77;2.40;;;13.60;99.90;;;;;;7323283;32;20111;-65
2021/12/30 17:38:45;;;;;;;6.40;2.40;;;13.60;99.90;;;;;;7326508;32;20595;-66
2021/12/30 17:42:48;;;;;;;6.82;2.20;;;13.60;99.90;;;;;;7325813;32;20145;-66
2021/12/30 17:46:49;;;;;;;7.03;2.30;;;13.60;99.90;;;;;;7331345;32;20107;-65
2021/12/30 17:50:54;;;;;;;8.43;2.90;;;13.60;99.90;;;;;;7337799;32;20388;-65
2021/12/30 17:54:55;;;;;;;11.43;2.80;;;13.50;99.90;;;;;;7330706;32;20398;-65
2021/12/30 17:58:57;;;;;;;4.10;2.50;;;13.40;99.90;;;;;;7331100;32;20108;-65
2021/12/30 18:02:59;;;;;;;9.07;3.45;;;13.40;99.90;;;;;;7330184;32;20111;-65
2021/12/30 18:07:01;;;;;;;9.18;3.50;;;13.30;99.90;;;;;;7339555;32;20107;-66
2021/12/30 18:11:03;;;;;;;9.07;3.37;;;13.40;99.90;;;;;;7335712;32;20119;-65
2021/12/30 18:15:07;;;;;;;5.93;2.65;;;13.30;99.90;;;;;;7333022;32;20134;-65
2021/12/30 18:19:08;;;;;;;9.57;2.72;;;13.30;99.90;;;;;;7329574;32;20194;-65
2021/12/30 18:23:11;;;;;;;5.65;2.53;;;13.30;99.90;;;;;;7323724;32;20207;-65
2021/12/30 18:27:13;;;;;;;6.40;3.05;;;13.40;99.90;;;;;;7331194;32;20787;-65
2021/12/30 18:31:16;;;;;;;8.65;3.35;;;13.30;99.90;;;;;;7329988;32;20112;-67
2021/12/30 18:35:21;;;;;;;6.43;3.40;;;13.30;99.90;;;;;;7332188;32;20194;-65
2021/12/30 18:39:23;;;;;;;9.50;2.92;;;13.30;99.90;;;;;;7329677;32;20111;-65
2021/12/30 18:43:25;;;;;;;6.65;2.47;;;13.50;99.90;;;;;;7318550;32;20119;-64
2021/12/30 18:47:27;;;;;;;5.12;2.20;;;13.50;99.90;;;;;;7333807;32;20365;-64
2021/12/30 18:51:29;;;;;;;7.25;2.17;;;13.50;99.90;;;;;;7335977;32;22020;-65
2021/12/30 18:55:31;;;;;;;8.25;2.42;;;13.50;99.90;;;;;;7333905;32;20141;-65
2021/12/30 18:59:33;;;;;;;4.45;2.62;;;13.50;99.90;;;;;;7327062;32;20207;-65
2021/12/30 19:03:35;;;;;;;5.47;2.00;;;13.60;99.90;;;;;;7331880;32;20135;-64
2021/12/30 19:07:37;;;;;;;5.25;2.08;;;13.60;99.90;;;;;;7327061;32;20111;-65
2021/12/30 19:11:39;;;;;;;6.70;1.95;;;13.60;99.90;;;;;;7330864;32;20118;-65
2021/12/30 19:15:44;;;;;;;4.00;1.87;;;13.60;99.90;;;;;;7329296;32;20127;-65
2021/12/30 19:19:45;;;;;;;5.82;1.85;;;13.60;99.90;;;;;;7329187;32;20243;-65
2021/12/30 19:23:48;;;;;;;6.43;2.00;;;13.60;99.90;;;;;;7328016;32;20149;-65
2021/12/30 19:27:50;;;;;;;8.02;1.87;;;13.60;99.90;;;;;;7320782;32;20170;-65
2021/12/30 19:31:51;;;;;;;5.93;1.98;;;13.70;99.90;;;;;;7336008;32;20471;-65
2021/12/30 19:35:56;;;;;;;5.85;2.05;;;13.60;99.90;;;;;;7328003;32;20207;-65
2021/12/30 19:39:58;;;;;;;5.35;2.08;;;13.70;99.90;;;;;;7333701;32;20217;-66
2021/12/30 19:44:00;;;;;;;4.05;1.85;;;13.70;99.90;;;;;;7332825;32;20530;-67
2021/12/30 19:48:04;;;;;;;11.50;3.00;;;13.60;99.90;;;;;;7326096;32;20108;-66
2021/12/30 19:52:06;;;;;;;3.47;2.12;;;13.60;99.90;;;;;;7323926;32;20120;-65
2021/12/30 19:56:09;;;;;;;5.75;2.60;;;13.50;99.90;;;;;;7336897;32;20224;-66
2021/12/30 20:00:15;;;;;;;5.90;3.17;;;13.50;99.90;;;;;;7335584;32;20111;-66
2021/12/30 20:04:18;;;;;;;9.00;3.30;;;13.40;99.90;;;;;;7340885;32;20115;-65
2021/12/30 20:08:22;;;;;;;8.18;4.15;;;13.40;99.90;;;;;;7328218;32;20141;-65
2021/12/30 20:12:24;;;;;;;6.60;3.80;;;13.30;99.90;;;;;;7327564;32;20142;-65
2021/12/30 20:16:26;;;;;;;7.12;4.12;;;13.30;99.90;;;;;;7334138;32;20124;-65
2021/12/30 20:20:28;;;;;;;5.82;3.50;;;13.20;99.90;;;;;;7330875;32;20269;-65
2021/12/30 20:24:32;;;;;;;8.63;4.15;;;13.20;99.90;;;;;;7333254;32;20190;-65
2021/12/30 20:28:34;;;;;;;6.65;4.43;;;13.20;99.90;;;;;;7331237;32;20107;-66
2021/12/30 20:32:36;;;;;;;7.80;4.32;;;13.20;99.90;;;;;;7329081;32;20186;-66
2021/12/30 20:36:40;;;;;;;7.43;4.57;;;13.20;99.90;;;;;;7326699;32;20217;-66
2021/12/30 20:40:46;;;;;;;5.87;3.95;;;13.20;99.90;;;;;;7329996;32;20126;-67
2021/12/30 20:44:48;;;;;;;7.28;3.97;;;13.20;99.90;;;;;;7332901;32;20187;-66
2021/12/30 20:48:50;;;;;;;5.95;3.72;;;13.30;99.90;;;;;;7338732;32;20831;-67
2021/12/30 20:52:53;;;;;;;6.15;3.55;;;13.30;99.90;;;;;;7329752;32;20198;-66
2021/12/30 20:56:55;;;;;;;7.57;3.47;;;13.40;99.90;;;;;;7331098;32;20491;-65
2021/12/30 21:00:56;;;;;;;6.68;3.90;;;13.30;99.90;;;;;;7349190;32;20108;-66